WetterOnline ( https://www.wetteronline.de )

Wetter aktuell Postfeld

Aktuelles Wetter: Dörnick (28m)

6-stündlich | Neueste Meldungen
Ortszeit Temperatur Wetter
Di, 11.05. 2:00 11.9° C leichter Regen
Mo, 10.05. 20:00 15.9° C bedeckt
Mo, 10.05. 14:00 24.4° C bewölkt
Mo, 10.05. 8:00 16.8° C bedeckt
Mo, 10.05. 2:00 19.1° C wolkig
So, 09.05. 20:00 21.8° C bedeckt
So, 09.05. 14:00 21.8° C leicht bewölkt
So, 09.05. 8:00 12.7° C wolkig
Ortszeit Temperatur Wetter
Di, 11.05. 4:00 10.9° C leichter Regen
Di, 11.05. 3:50 10.9° C leichter Regen
Di, 11.05. 3:40 10.9° C bedeckt
Di, 11.05. 3:30 11.1° C leichter Regen
Di, 11.05. 3:20 11.1° C leichter Regen
Di, 11.05. 3:10 11.2° C leichter Regen
Di, 11.05. 3:00 11.4° C Regen
Di, 11.05. 2:30 11.6° C leichter Regen
Di, 11.05. 2:00 11.9° C leichter Regen
Di, 11.05. 1:30 12.9° C leichter Regen
Di, 11.05. 1:00 13.1° C leichter Regen
Ortszeit Relative Feuchte Sichtweite
Di, 11.05. 2:00 89% 30 km
Mo, 10.05. 20:00 71% >70 km
Mo, 10.05. 14:00 47% >70 km
Mo, 10.05. 8:00 66% 60 km
Mo, 10.05. 2:00 61% 65 km
So, 09.05. 20:00 46% >70 km
So, 09.05. 14:00 52% 60 km
So, 09.05. 8:00 74% 65 km
Ortszeit Relative Feuchte Sichtweite
Di, 11.05. 4:00 92% 16 km
Di, 11.05. 3:50 92% -
Di, 11.05. 3:40 92% -
Di, 11.05. 3:30 92% 12 km
Di, 11.05. 3:20 92% -
Di, 11.05. 3:10 94% -
Di, 11.05. 3:00 94% 3.6 km
Di, 11.05. 2:30 91% -
Di, 11.05. 2:00 89% 30 km
Di, 11.05. 1:30 85% 17 km
Di, 11.05. 1:00 84% 18 km
Ortszeit Niederschlagsmenge Niederschlagsart
Di, 11.05. 2:00 2 l/m2 in 6 Std. Regen
Mo, 10.05. 20:00 0.1 l/m2 in 12 Std. Regen
Mo, 10.05. 14:00 0.1 l/m2 in 6 Std. Regen
Mo, 10.05. 8:00 0.0 l/m2 in 12 Std. -
Mo, 10.05. 2:00 0.0 l/m2 in 6 Std. -
So, 09.05. 20:00 0.1 l/m2 in 12 Std. Regen
So, 09.05. 14:00 0.0 l/m2 in 6 Std. -
So, 09.05. 8:00 5 l/m2 in 12 Std. Regen
Ortszeit Niederschlagsmenge Niederschlagsart
Di, 11.05. 4:00 2.0 l/m2 in 1 Std. Regen
Di, 11.05. 3:50 keine Meldung -
Di, 11.05. 3:40 keine Meldung -
Di, 11.05. 3:30 1.9 l/m2 in 1 Std. -
Di, 11.05. 3:20 keine Meldung -
Di, 11.05. 3:10 keine Meldung -
Di, 11.05. 3:00 2.6 l/m2 in 1 Std. Regen
Di, 11.05. 2:30 0.2 l/m2 in 1 Std. -
Di, 11.05. 2:00 2.0 l/m2 in 1 Std. Regen
Di, 11.05. 1:30 0.4 l/m2 in 1 Std. -
Di, 11.05. 1:00 0.2 l/m2 in 1 Std. Regen
Ortszeit Stärke Spitze Richtung
km/h Bft. km/h Grad Sektor
Di, 11.05. 2:00 11 2 19 60° NO
Mo, 10.05. 20:00 7 2 43 320° NW
Mo, 10.05. 14:00 14 3 22 180° S
Mo, 10.05. 8:00 7 2 25 140° SO
Mo, 10.05. 2:00 15 3 30 170° S
So, 09.05. 20:00 9 2 31 130° SO
So, 09.05. 14:00 22 4 36 180° S
So, 09.05. 8:00 17 3 35 190° S
Ortszeit Stärke Spitze Richtung
km/h Bft. km/h Grad Sektor
Di, 11.05. 4:00 7 2 14 40° NO
Di, 11.05. 3:50 7 2 - 40° NO
Di, 11.05. 3:40 9 2 - 30° NO
Di, 11.05. 3:30 7 2 13 40° NO
Di, 11.05. 3:20 7 2 - 40° NO
Di, 11.05. 3:10 7 2 - 50° NO
Di, 11.05. 3:00 4 1 14 70° O
Di, 11.05. 2:30 4 1 14 60° NO
Di, 11.05. 2:00 11 2 19 60° NO
Di, 11.05. 1:30 4 1 14 130° SO
Di, 11.05. 1:00 6 1 11 80° O
Ortszeit Untergrenze Bedeckung Gattung
total tief tief mittel hoch
Di, 11.05. 2:00 90 m 8/8 8/8 - - -
Mo, 10.05. 20:00 3900 m 8/8 8/8 - - -
Mo, 10.05. 14:00 3900 m 7/8 7/8 - - -
Mo, 10.05. 8:00 3000 m 8/8 8/8 - - -
Mo, 10.05. 2:00 3300 m 8/8 2/8 - - -
So, 09.05. 20:00 4500 m 8/8 8/8 - - -
So, 09.05. 14:00 8700 m 7/8 0/8 - - -
So, 09.05. 8:00 2400 m 6/8 6/8 - - -
Ortszeit Bedeckungsgrad in Achtel und Wolkenuntergrenze
Di, 11.05. 4:00 7(1800m) 8(2100m) 8(2700m)
Di, 11.05. 3:50 7(1800m) 8(2100m) 8(2700m)
Di, 11.05. 3:40 7(1800m) 8(2100m) 8(2700m)
Di, 11.05. 3:30 1(120m) 8(2400m) 8(2700m)
Di, 11.05. 3:20 1(120m) 8(2400m) 8(2700m)
Di, 11.05. 3:10 1(120m) 6(2100m) 8(2400m)
Di, 11.05. 3:00 1(120m) 4(1500m) 8(2100m)
Di, 11.05. 2:30 1(1800m) 7(2100m) 8(2400m)
Di, 11.05. 2:00 1(90m) 6(2100m) 8(2700m)
Di, 11.05. 1:30 7(1500m) 8(2400m) 7(2100m)
Di, 11.05. 1:00 1(90m) 8(1800m)
Ortszeit Luftdruck NN (hPa) Tendenz (hPa in 3 Std.)
Di, 11.05. 2:00 1011 + 0,2
Mo, 10.05. 20:00 1010 + 2,7
Mo, 10.05. 14:00 1004 + 0,4
Mo, 10.05. 8:00 1003 + 1,3
Mo, 10.05. 2:00 1001 - 0,5
So, 09.05. 20:00 1003 - 1,2
So, 09.05. 14:00 1006 - 0,8
So, 09.05. 8:00 1007 + 0,1
Ortszeit Luftdruck NN (hPa) Tendenz (hPa in 3 Std.)
Di, 11.05. 4:00 1011 - 0,4
Di, 11.05. 3:50 1011 keine Meldung
Di, 11.05. 3:40 1011 keine Meldung
Di, 11.05. 3:30 1011 + 0,4
Di, 11.05. 3:20 1011 keine Meldung
Di, 11.05. 3:10 1011 keine Meldung
Di, 11.05. 3:00 1012 + 0,8
Di, 11.05. 2:30 1012 + 0,6
Di, 11.05. 2:00 1011 + 0,2
Di, 11.05. 1:30 1012 + 1,1
Di, 11.05. 1:00 1011 + 0,6
Ortszeit Schneehöhe (cm)
Di, 11.05. 2:00 0
Mo, 10.05. 20:00 0
Mo, 10.05. 14:00 0
Mo, 10.05. 8:00 0
Mo, 10.05. 2:00 0
So, 09.05. 20:00 0
So, 09.05. 14:00 0
So, 09.05. 8:00 0
Ortszeit Schneehöhe (cm)
Di, 11.05. 4:00 0
Di, 11.05. 3:50 0
Di, 11.05. 3:40 0
Di, 11.05. 3:30 0
Di, 11.05. 3:20 0
Di, 11.05. 3:10 0
Di, 11.05. 3:00 0
Di, 11.05. 2:30 0
Di, 11.05. 2:00 0
Di, 11.05. 1:30 0
Di, 11.05. 1:00 0
Link zu dieser Seite / Seite empfehlen

Das Wetter in ...